Alvarado, Texas
Current Conditions -  °F | °C
As of 3:55 AM on Saturday 25 Oct 2014 (Local Time) from KFWS Reporting Station
Clear Clear  
Wind Chill: 66°   Ceiling: Unl
Heat Index: 66°   Visibility: 10mi
Dew Point: 58°   Wind: 7mph
Humidity: 76%   Direction: 190°S
Pressure: 30.11"   Gusts: NA
Location:  32.41°N, 97.21°W
Report Text: KFWS 250855Z AUTO 19006KT 10SM CLR 19/15 A3011 RMK AO2 T01900146
Loading
Personal Weather Stations






























Interactive Weather Map New forecast layout! Learn more

10-Day Weather Forecast

Advertisements
Track Severe Weather on mobile